Time;durP1;ratioP1;P1;durP2;ratioP2;P2;SDS_P1;SDS_P2;PMS_P1;PMS_P2;Temp;Humidity;BMP_temperature;BMP_pressure;BME280_temperature;BME280_humidity;BME280_pressure;Samples;Min_cycle;Max_cycle;Signal;HPM_P1;HPM_P2
2023/10/12 00:02:27;;;;;;;0.45;0.37;;;;;;;16.03;63.12;100323.97;4474323;32;33852;-82
2023/10/12 00:07:38;;;;;;;6.25;1.40;;;;;;;15.98;63.09;100315.41;4474883;32;34033;-82
2023/10/12 00:12:44;;;;;;;0.68;0.68;;;;;;;15.90;62.97;100312.31;4461115;32;32917;-82
2023/10/12 00:15:28;;;;;;;1.37;1.27;;;;;;;15.76;63.38;100304.25;4462331;32;34844;-82
2023/10/12 00:18:04;;;;;;;3.00;1.60;;;;;;;15.75;63.38;100307.87;4456510;32;34016;-82
2023/10/12 00:20:35;;;;;;;0.70;0.57;;;;;;;15.80;63.34;100301.31;4460434;32;33416;-81
2023/10/12 00:23:10;;;;;;;1.52;1.40;;;;;;;15.98;62.01;100299.41;4461130;32;34590;-82
2023/10/12 00:25:47;;;;;;;0.85;0.85;;;;;;;15.61;63.26;100293.50;4463614;32;33709;-82
2023/10/12 00:28:19;;;;;;;1.55;1.45;;;;;;;15.66;62.71;100293.28;4473035;32;33465;-81
2023/10/12 00:30:50;;;;;;;0.45;0.45;;;;;;;15.79;62.56;100288.97;4462632;32;34412;-83
2023/10/12 00:33:18;;;;;;;1.23;1.12;;;;;;;15.82;62.66;100296.78;4460654;32;33425;-82
2023/10/12 00:36:04;;;;;;;2.33;0.95;;;;;;;15.71;62.64;100295.66;4452508;32;34811;-81
2023/10/12 00:38:32;;;;;;;1.17;1.10;;;;;;;15.57;62.92;100299.97;4475791;31;34571;-81
2023/10/12 00:41:04;;;;;;;2.20;1.35;;;;;;;15.55;63.19;100299.19;4474832;32;33428;-81
2023/10/12 00:43:36;;;;;;;0.75;0.75;;;;;;;15.62;63.17;100291.72;4477033;32;33944;-81
2023/10/12 00:48:55;;;;;;;7.68;2.72;;;;;;;15.46;63.12;100285.53;4475684;32;34721;-81
2023/10/12 00:51:23;;;;;;;8.52;1.62;;;;;;;15.58;62.86;100280.38;4448511;32;32112;-82
2023/10/12 00:53:57;;;;;;;0.90;0.90;;;;;;;15.53;63.05;100279.78;4468158;32;34572;-81
2023/10/12 00:56:31;;;;;;;1.25;1.15;;;;;;;15.52;62.96;100280.72;4477102;32;33433;-81
2023/10/12 00:59:00;;;;;;;1.33;0.93;;;;;;;15.39;63.76;100285.03;4476220;32;33685;-81
2023/10/12 01:01:31;;;;;;;2.08;0.98;;;;;;;15.39;63.31;100285.03;4474299;32;33130;-81
2023/10/12 01:03:59;;;;;;;0.73;0.73;;;;;;;15.35;63.58;100284.34;4471766;32;34895;-81
2023/10/12 01:09:05;;;;;;;0.88;0.88;;;;;;;15.38;63.68;100280.63;4473534;32;34549;-81
2023/10/12 01:11:43;;;;;;;0.85;0.75;;;;;;;15.38;63.64;100277.97;4474519;32;32065;-80
2023/10/12 01:14:11;;;;;;;1.35;1.25;;;;;;;15.41;63.32;100272.47;4455749;32;33064;-80
2023/10/12 01:19:23;;;;;;;0.80;0.80;;;;;;;15.32;62.87;100275.66;4474598;32;33133;-81
2023/10/12 01:21:52;;;;;;;0.43;0.43;;;;;;;15.24;62.86;100273.44;4470322;32;33331;-81
2023/10/12 01:24:29;;;;;;;1.08;0.68;;;;;;;15.20;63.13;100265.72;4473319;32;33519;-81
2023/10/12 01:26:58;;;;;;;0.32;0.32;;;;;;;15.09;63.34;100261.81;4461543;32;34381;-81
2023/10/12 01:29:26;;;;;;;0.30;0.30;;;;;;;15.03;63.38;100267.47;4474357;32;33305;-81
2023/10/12 01:34:44;;;;;;;0.88;0.88;;;;;;;15.08;63.32;100253.94;4474947;32;33769;-81
2023/10/12 01:37:21;;;;;;;;;;;;;;;15.02;63.22;100254.28;4466375;32;34966;-82
2023/10/12 01:45:19;;;;;;;4.62;1.02;;;;;;;14.90;63.21;100265.56;4464562;32;32480;-80
2023/10/12 01:47:54;;;;;;;1.55;1.45;;;;;;;15.02;62.60;100255.13;4460558;32;34799;-81
2023/10/12 01:50:28;;;;;;;1.00;0.60;;;;;;;14.93;62.57;100258.28;4460343;32;34130;-81
2023/10/12 01:52:58;;;;;;;0.20;0.20;;;;;;;14.91;62.89;100262.84;4460534;32;32894;-81
2023/10/12 01:55:30;;;;;;;2.15;1.00;;;;;;;14.87;63.09;100260.44;4476148;32;33562;-81
2023/10/12 01:57:58;;;;;;;4.20;0.85;;;;;;;14.89;62.85;100254.06;4472475;32;33965;-81
2023/10/12 02:00:28;;;;;;;1.12;0.93;;;;;;;14.74;63.61;100255.78;4465737;32;33709;-80
2023/10/12 02:05:47;;;;;;;4.18;0.70;;;;;;;14.79;62.83;100268.81;4473233;32;33694;-80
2023/10/12 02:08:17;;;;;;;0.70;0.70;;;;;;;14.70;63.40;100263.97;4460249;32;33071;-80
2023/10/12 02:10:54;;;;;;;0.90;0.90;;;;;;;14.64;63.70;100253.69;4463114;32;33510;-81
2023/10/12 02:13:23;;;;;;;3.30;1.15;;;;;;;14.76;62.86;100258.34;4472260;32;34254;-80
2023/10/12 02:15:51;;;;;;;0.77;0.77;;;;;;;14.73;62.75;100255.88;4471189;32;34235;-81
2023/10/12 02:18:19;;;;;;;3.03;1.58;;;;;;;14.75;62.74;100259.28;4475284;32;34011;-80
2023/10/12 02:20:59;;;;;;;4.07;1.75;;;;;;;14.88;62.06;100260.34;4473875;32;33971;-80
2023/10/12 02:23:32;;;;;;;0.98;0.98;;;;;;;14.64;62.88;100266.97;4460634;32;34086;-80
2023/10/12 02:26:07;;;;;;;1.10;1.00;;;;;;;14.51;63.05;100267.63;4463239;32;32531;-81
2023/10/12 02:28:37;;;;;;;0.43;0.40;;;;;;;14.41;63.63;100269.00;4465087;32;33385;-81
2023/10/12 02:31:06;;;;;;;2.12;0.98;;;;;;;14.42;63.59;100264.53;4476900;32;33797;-81
2023/10/12 02:33:37;;;;;;;0.80;0.70;;;;;;;14.50;63.10;100262.38;4451227;32;32353;-80
2023/10/12 02:36:09;;;;;;;3.70;1.83;;;;;;;14.40;63.60;100261.97;4463174;32;33148;-80
2023/10/12 02:38:37;;;;;;;0.30;0.30;;;;;;;14.50;63.06;100262.38;4473453;32;33695;-80
2023/10/12 02:41:04;;;;;;;9.57;1.15;;;;;;;14.44;63.24;100260.87;4462069;32;34140;-80
2023/10/12 02:43:33;;;;;;;1.15;1.10;;;;;;;14.33;63.84;100260.56;4460434;32;33493;-80
2023/10/12 02:46:06;;;;;;;0.75;0.75;;;;;;;14.19;64.15;100263.06;4462828;32;32400;-80
2023/10/12 02:48:36;;;;;;;0.57;0.57;;;;;;;14.17;64.29;100260.50;4476221;32;35806;-81
2023/10/12 02:51:06;;;;;;;1.73;1.62;;;;;;;14.28;63.95;100257.28;4448296;32;33508;-80
2023/10/12 02:53:35;;;;;;;1.95;1.55;;;;;;;14.33;63.56;100256.09;4462653;32;33210;-80
2023/10/12 02:56:04;;;;;;;1.45;1.35;;;;;;;14.37;63.38;100255.97;4476858;32;34731;-80
2023/10/12 02:58:32;;;;;;;1.33;0.98;;;;;;;14.30;63.32;100268.72;4474275;32;34804;-80
2023/10/12 03:01:21;;;;;;;3.50;1.83;;;;;;;14.26;63.74;100256.53;4473293;32;33933;-80
2023/10/12 03:03:50;;;;;;;0.55;0.55;;;;;;;14.27;63.25;100255.56;4472750;32;33139;-80
2023/10/12 03:06:23;;;;;;;3.33;1.12;;;;;;;14.07;63.52;100260.13;4476492;32;34594;-80
2023/10/12 03:11:31;;;;;;;2.25;2.05;;;;;;;14.10;63.72;100251.16;4474259;32;34253;-80
2023/10/12 03:14:26;;;;;;;1.12;1.08;;;;;;;14.01;64.18;100247.16;4460928;32;33117;-80
2023/10/12 03:17:02;;;;;;;1.23;0.50;;;;;;;14.18;63.38;100243.63;4474353;32;34482;-80
2023/10/12 03:19:35;;;;;;;4.50;2.37;;;;;;;13.88;64.52;100248.72;4470906;32;33191;-80
2023/10/12 03:22:03;;;;;;;1.60;0.70;;;;;;;13.97;64.14;100258.00;4463894;32;33451;-82
2023/10/12 03:24:43;;;;;;;6.68;2.10;;;;;;;13.98;64.00;100254.41;4474322;32;33471;-83
2023/10/12 03:27:13;;;;;;;0.95;0.95;;;;;;;13.91;64.27;100259.19;4474149;32;34683;-81
2023/10/12 03:29:45;;;;;;;5.72;1.33;;;;;;;13.86;64.21;100261.19;4464542;32;33638;-80
2023/10/12 03:32:20;;;;;;;3.83;1.02;;;;;;;13.80;64.30;100267.66;4461602;32;34364;-80
2023/10/12 03:34:53;;;;;;;1.40;1.30;;;;;;;13.85;64.31;100275.41;4465580;32;32821;-80
2023/10/12 03:42:56;;;;;;;1.05;0.93;;;;;;;13.97;63.60;100256.22;4464948;32;32917;-80
2023/10/12 03:45:24;;;;;;;2.40;1.58;;;;;;;13.78;64.04;100247.47;4462080;32;33858;-80
2023/10/12 03:48:15;;;;;;;2.47;1.40;;;;;;;13.72;64.27;100250.37;4475734;32;34231;-81
2023/10/12 03:51:00;;;;;;;1.17;1.17;;;;;;;13.83;63.93;100248.09;4465011;32;34983;-80
2023/10/12 03:53:31;;;;;;;0.60;0.60;;;;;;;13.78;64.13;100239.50;4450367;32;32728;-79
2023/10/12 03:56:00;;;;;;;1.02;0.75;;;;;;;13.90;63.70;100238.84;4473926;32;34138;-80
2023/10/12 03:58:28;;;;;;;3.55;0.98;;;;;;;13.72;64.06;100242.44;4474514;32;32178;-81
2023/10/12 04:01:10;;;;;;;2.47;1.25;;;;;;;13.67;64.38;100247.09;4474745;32;31885;-81
2023/10/12 04:03:41;;;;;;;0.88;0.88;;;;;;;13.83;63.62;100251.59;4462144;32;32824;-82
2023/10/12 04:06:15;;;;;;;1.27;1.10;;;;;;;13.75;63.72;100252.91;4475365;32;33307;-82
2023/10/12 04:08:51;;;;;;;1.42;1.33;;;;;;;13.60;63.99;100251.00;4462388;32;33176;-81
2023/10/12 04:21:22;;;;;;;1.25;0.93;;;;;;;13.75;63.53;100240.50;4464142;32;32955;-81
2023/10/12 04:29:13;;;;;;;0.73;0.73;;;;;;;13.60;63.85;100243.91;4463406;32;32822;-82
2023/10/12 04:34:10;;;;;;;0.95;0.90;;;;;;;13.49;63.85;100240.94;4474393;32;33895;-83
2023/10/12 04:39:17;;;;;;;0.93;0.88;;;;;;;13.68;63.34;100235.59;4471769;32;33653;-80
2023/10/12 04:47:06;;;;;;;2.90;1.00;;;;;;;13.56;63.56;100235.22;4471017;32;32903;-80
2023/10/12 04:54:31;;;;;;;17.45;1.65;;;;;;;13.48;63.76;100234.78;4472743;32;33909;-81
2023/10/12 05:02:43;;;;;;;1.77;1.50;;;;;;;13.42;64.09;100244.81;4443156;32;33102;-81
2023/10/12 05:07:53;;;;;;;2.22;1.23;;;;;;;13.53;63.22;100253.97;4463838;32;33281;-81
2023/10/12 05:10:32;;;;;;;1.52;1.42;;;;;;;13.42;63.89;100258.06;4449316;32;32461;-81
2023/10/12 05:13:05;;;;;;;1.65;1.02;;;;;;;13.44;63.76;100257.06;4464346;32;33618;-81
2023/10/12 05:15:42;;;;;;;1.62;1.35;;;;;;;13.55;63.16;100261.84;4461845;32;33700;-81
2023/10/12 05:18:13;;;;;;;0.90;0.90;;;;;;;13.52;62.54;100268.16;4458466;32;33666;-81
2023/10/12 05:20:41;;;;;;;3.42;1.83;;;;;;;13.28;63.86;100275.50;4474274;32;34644;-81
2023/10/12 05:23:10;;;;;;;0.88;0.88;;;;;;;13.43;63.64;100267.72;4457076;32;33829;-81
2023/10/12 05:25:52;;;;;;;2.42;0.85;;;;;;;13.47;63.52;100258.69;4459331;31;32801;-80
2023/10/12 05:28:31;;;;;;;5.65;2.50;;;;;;;13.50;63.29;100259.41;4472072;32;32974;-81
2023/10/12 05:30:59;;;;;;;1.35;0.80;;;;;;;13.43;63.97;100257.97;4462524;32;32036;-80
2023/10/12 05:36:11;;;;;;;0.73;0.57;;;;;;;13.45;64.30;100250.81;4468976;32;34102;-82
2023/10/12 05:38:48;;;;;;;1.58;1.48;;;;;;;13.47;64.35;100248.94;4458898;32;32259;-81
2023/10/12 05:44:08;;;;;;;1.90;0.70;;;;;;;13.64;64.42;100252.59;4473600;32;33913;-80
2023/10/12 05:46:38;;;;;;;3.85;2.03;;;;;;;13.48;64.95;100265.72;4464603;32;32908;-80
2023/10/12 05:49:14;;;;;;;1.75;1.55;;;;;;;13.52;65.06;100262.84;4473791;32;34705;-80
2023/10/12 05:51:44;;;;;;;2.00;1.87;;;;;;;13.56;64.93;100268.88;4462767;32;33668;-80
2023/10/12 05:54:19;;;;;;;2.50;1.85;;;;;;;13.68;64.74;100256.81;4448324;32;33838;-80
2023/10/12 05:56:49;;;;;;;0.90;0.85;;;;;;;13.79;64.86;100259.78;4462680;32;31700;-80
2023/10/12 05:59:18;;;;;;;1.10;1.10;;;;;;;13.87;65.11;100264.72;4474118;32;34688;-80
2023/10/12 06:01:46;;;;;;;2.70;1.67;;;;;;;13.87;66.19;100254.09;4454193;32;32586;-80
2023/10/12 06:04:15;;;;;;;2.30;1.90;;;;;;;13.95;66.43;100255.41;4466808;32;35061;-80
2023/10/12 06:06:43;;;;;;;3.30;1.25;;;;;;;14.05;66.83;100246.06;4453739;32;33439;-80
2023/10/12 06:09:12;;;;;;;0.93;0.93;;;;;;;14.30;66.85;100258.09;4469422;32;32423;-80
2023/10/12 06:11:44;;;;;;;5.10;2.17;;;;;;;14.81;65.31;100251.84;4482884;32;34385;-79
2023/10/12 06:14:14;;;;;;;2.05;1.08;;;;;;;14.89;65.27;100264.72;4482275;32;34105;-79
2023/10/12 06:16:45;;;;;;;1.40;1.30;;;;;;;15.04;65.30;100263.87;4463554;32;34597;-79
2023/10/12 06:19:34;;;;;;;1.55;1.45;;;;;;;15.02;65.88;100259.59;4476503;32;32489;-79
2023/10/12 06:22:13;;;;;;;1.20;1.20;;;;;;;14.76;67.16;100264.50;4470074;32;33549;-79
2023/10/12 06:24:44;;;;;;;1.30;1.20;;;;;;;14.87;66.65;100274.59;4465201;32;33448;-79
2023/10/12 06:29:46;;;;;;;3.25;2.53;;;;;;;15.63;64.07;100269.47;4479341;32;33403;-80
2023/10/12 06:32:21;;;;;;;5.28;2.08;;;;;;;15.31;64.61;100272.13;4481155;32;32361;-81
2023/10/12 06:35:03;;;;;;;5.60;2.50;;;;;;;15.50;64.19;100268.44;4478261;32;33946;-80
2023/10/12 06:45:48;;;;;;;0.80;0.60;;;;;;;15.55;63.50;100267.25;4467743;32;33371;-82
2023/10/12 06:48:43;;;;;;;1.40;1.12;;;;;;;15.91;62.46;100270.59;4478896;32;33766;-80
2023/10/12 06:51:13;;;;;;;2.10;1.65;;;;;;;15.81;63.24;100268.47;4491846;31;33904;-80
2023/10/12 06:53:45;;;;;;;1.85;0.88;;;;;;;16.02;61.88;100263.66;4479398;32;34073;-81
2023/10/12 06:56:24;;;;;;;1.85;1.75;;;;;;;15.88;63.04;100268.94;4465447;32;33904;-82
2023/10/12 06:59:14;;;;;;;0.65;0.60;;;;;;;16.13;61.98;100261.22;4452079;32;34271;-81
2023/10/12 07:04:26;;;;;;;1.37;1.30;;;;;;;15.93;61.39;100261.53;4480281;32;33063;-84
2023/10/12 07:07:01;;;;;;;2.03;1.92;;;;;;;15.95;60.40;100265.00;4455171;32;34316;-81
2023/10/12 07:09:39;;;;;;;1.23;1.12;;;;;;;16.39;59.42;100262.34;4462418;32;33135;-81
2023/10/12 07:12:11;;;;;;;2.60;2.00;;;;;;;16.48;59.01;100270.75;4461917;32;33402;-83
2023/10/12 07:14:47;;;;;;;0.45;0.45;;;;;;;16.59;59.72;100278.94;4461553;32;35940;-80
2023/10/12 07:17:16;;;;;;;1.48;1.37;;;;;;;16.51;59.47;100276.72;4471491;32;33337;-81
2023/10/12 07:19:49;;;;;;;13.57;2.85;;;;;;;17.26;58.63;100276.56;4459600;32;32597;-79
2023/10/12 07:22:18;;;;;;;2.53;1.20;;;;;;;17.20;59.05;100276.97;4463284;32;36574;-80
2023/10/12 07:24:53;;;;;;;1.73;1.62;;;;;;;16.94;59.98;100268.75;4475601;32;34529;-80
2023/10/12 07:27:22;;;;;;;1.17;1.15;;;;;;;17.02;60.29;100266.47;4474438;32;33515;-81
2023/10/12 07:30:22;;;;;;;1.33;1.23;;;;;;;17.21;57.93;100271.50;4463736;32;34424;-80
2023/10/12 07:32:55;;;;;;;1.60;1.50;;;;;;;17.56;57.38;100265.72;4474688;32;33448;-80
2023/10/12 07:35:34;;;;;;;1.58;1.12;;;;;;;17.54;58.28;100255.13;4476507;32;33506;-81
2023/10/12 07:38:12;;;;;;;0.77;0.77;;;;;;;17.36;59.18;100257.19;4461447;32;34212;-81
2023/10/12 07:43:20;;;;;;;6.87;2.25;;;;;;;17.83;57.57;100255.06;4475597;32;34525;-81
2023/10/12 07:45:49;;;;;;;2.72;2.53;;;;;;;17.91;56.80;100250.06;4461624;32;34870;-81
2023/10/12 07:49:22;;;;;;;1.85;1.27;;;;;;;17.95;56.63;100240.91;4461959;32;34024;-81
2023/10/12 07:51:24;;;;;;;1.42;1.33;;;;;;;18.23;56.74;100239.00;4465304;32;34685;-81
2023/10/12 07:54:42;;;;;;;2.15;1.65;;;;;;;18.23;56.69;100244.34;4462954;32;32865;-80
2023/10/12 07:56:54;;;;;;;2.33;1.75;;;;;;;18.48;55.88;100244.37;4476296;32;32822;-80
2023/10/12 07:59:22;;;;;;;1.90;1.37;;;;;;;18.22;56.64;100243.50;4448664;32;33308;-80
2023/10/12 08:01:50;;;;;;;1.10;1.10;;;;;;;18.28;56.51;100242.25;4474344;32;33710;-80
2023/10/12 08:04:32;;;;;;;0.90;0.80;;;;;;;18.79;55.58;100243.09;4463626;32;33403;-80
2023/10/12 08:07:06;;;;;;;1.55;1.45;;;;;;;18.88;54.75;100236.25;4463622;32;33408;-80
2023/10/12 08:09:47;;;;;;;0.70;0.70;;;;;;;18.74;55.71;100241.72;4461694;32;33273;-80
2023/10/12 08:12:24;;;;;;;4.68;1.35;;;;;;;19.12;54.28;100239.84;4462733;32;33616;-80
2023/10/12 08:15:07;;;;;;;2.10;2.00;;;;;;;18.96;54.63;100236.56;4460964;32;33310;-80
2023/10/12 08:17:35;;;;;;;12.40;2.45;;;;;;;19.08;54.83;100243.69;4473630;32;33448;-80
2023/10/12 08:22:55;;;;;;;6.07;2.05;;;;;;;19.28;54.56;100220.00;4459614;32;32847;-82
2023/10/12 08:25:37;;;;;;;1.37;1.10;;;;;;;19.38;54.11;100218.38;4463859;32;32739;-81
2023/10/12 08:28:18;;;;;;;2.83;2.47;;;;;;;19.26;54.02;100219.25;4460361;32;34008;-81
2023/10/12 08:31:01;;;;;;;1.62;1.52;;;;;;;19.31;53.61;100223.28;4455278;32;36909;-82
2023/10/12 08:33:48;;;;;;;2.60;1.77;;;;;;;20.08;51.30;100217.59;4449261;32;34812;-82
2023/10/12 08:38:53;;;;;;;1.73;1.60;;;;;;;20.23;51.20;100216.44;4459705;32;33426;-79
2023/10/12 08:43:59;;;;;;;1.42;1.33;;;;;;;20.35;51.15;100217.28;4463725;32;32633;-79
2023/10/12 08:49:52;;;;;;;2.40;1.35;;;;;;;20.93;49.79;100215.41;4451885;32;33974;-79
2023/10/12 08:52:27;;;;;;;3.10;1.80;;;;;;;20.84;49.89;100216.13;4462510;32;33925;-79
2023/10/12 08:55:04;;;;;;;2.12;2.03;;;;;;;20.97;49.92;100222.22;4449324;32;32893;-79
2023/10/12 08:57:42;;;;;;;3.28;1.95;;;;;;;21.40;47.91;100208.03;4464428;32;34067;-79
2023/10/12 09:00:40;;;;;;;1.90;1.80;;;;;;;21.51;48.76;100205.34;4462113;32;33125;-79
2023/10/12 09:03:37;;;;;;;1.55;1.33;;;;;;;21.44;48.70;100212.16;4474561;32;34610;-79
2023/10/12 09:05:58;;;;;;;2.03;1.70;;;;;;;21.43;48.28;100203.25;4459296;32;32803;-79
2023/10/12 09:11:03;;;;;;;1.50;1.40;;;;;;;21.72;49.01;100198.16;4471583;32;34254;-79
2023/10/12 09:13:35;;;;;;;3.10;2.58;;;;;;;22.21;47.76;100201.22;4472055;32;33632;-79
2023/10/12 09:16:09;;;;;;;1.50;1.40;;;;;;;22.18;47.27;100194.28;4462574;32;33400;-79
2023/10/12 09:18:45;;;;;;;;;;;;;;;22.13;47.31;100201.91;4462091;32;33185;-79
2023/10/12 09:36:53;;;;;;;2.92;1.27;;;;;;;23.12;44.74;100186.06;4471767;32;32635;-79
2023/10/12 09:39:27;;;;;;;1.35;1.25;;;;;;;22.83;46.21;100185.94;4471557;32;33309;-79
2023/10/12 09:42:14;;;;;;;0.90;0.88;;;;;;;23.07;44.68;100174.88;4471753;32;33830;-79
2023/10/12 09:44:42;;;;;;;7.18;2.72;;;;;;;23.12;44.76;100175.31;4463424;32;32208;-79
2023/10/12 09:47:15;;;;;;;1.48;1.37;;;;;;;23.29;44.55;100176.47;4471980;32;34057;-79
2023/10/12 09:49:49;;;;;;;2.28;1.95;;;;;;;23.27;45.00;100175.78;4472177;32;33179;-80
2023/10/12 09:52:21;;;;;;;1.60;0.85;;;;;;;23.97;44.44;100167.44;4475184;32;33796;-79
2023/10/12 09:54:55;;;;;;;1.52;1.33;;;;;;;23.89;45.09;100163.78;4460555;32;34291;-79
2023/10/12 09:57:26;;;;;;;2.92;1.23;;;;;;;23.99;43.84;100167.31;4461591;32;33523;-80
2023/10/12 09:59:59;;;;;;;0.73;0.73;;;;;;;24.31;43.79;100163.38;4473636;32;33397;-79
2023/10/12 10:02:27;;;;;;;1.75;1.65;;;;;;;24.00;43.53;100169.00;4462079;32;33072;-79
2023/10/12 10:05:51;;;;;;;1.98;1.80;;;;;;;24.49;43.30;100167.91;4445304;32;33276;-80
2023/10/12 10:07:55;;;;;;;1.17;1.02;;;;;;;24.61;42.19;100168.59;4469310;32;34357;-79
2023/10/12 10:10:30;;;;;;;2.35;2.12;;;;;;;24.53;43.09;100166.63;4458786;32;33116;-79
2023/10/12 10:13:20;;;;;;;2.28;1.20;;;;;;;24.75;43.30;100162.69;4472900;32;32460;-80
2023/10/12 10:15:56;;;;;;;2.83;1.75;;;;;;;25.02;43.00;100155.59;4476263;32;33971;-79
2023/10/12 10:18:28;;;;;;;5.45;1.55;;;;;;;24.30;42.70;100153.59;4473563;32;35224;-79
2023/10/12 10:20:56;;;;;;;6.47;2.25;;;;;;;24.83;43.16;100155.69;4473912;32;33324;-79
2023/10/12 10:23:24;;;;;;;2.45;1.73;;;;;;;25.24;41.40;100155.19;4472557;32;33489;-79
2023/10/12 10:26:16;;;;;;;2.85;1.83;;;;;;;25.31;42.14;100151.88;4460058;32;34281;-79
2023/10/12 10:28:53;;;;;;;1.23;0.80;;;;;;;25.25;41.91;100150.62;4462203;32;33972;-80
2023/10/12 10:31:26;;;;;;;5.95;2.10;;;;;;;25.64;41.39;100140.38;4473049;32;34319;-79
2023/10/12 10:33:58;;;;;;;2.22;1.87;;;;;;;25.48;41.09;100145.63;4459057;32;33868;-79
2023/10/12 10:36:27;;;;;;;1.80;1.30;;;;;;;25.72;40.80;100132.31;4472130;32;33451;-79
2023/10/12 10:38:56;;;;;;;2.42;1.50;;;;;;;25.42;41.38;100138.13;4473807;32;33903;-79
2023/10/12 10:44:17;;;;;;;2.03;1.10;;;;;;;26.20;40.91;100131.00;4473270;32;34681;-79
2023/10/12 10:46:46;;;;;;;1.60;1.12;;;;;;;26.31;40.65;100119.06;4461272;32;34203;-79
2023/10/12 10:49:15;;;;;;;3.62;2.22;;;;;;;26.15;40.09;100116.25;4449418;32;36796;-79
2023/10/12 10:54:38;;;;;;;1.75;1.65;;;;;;;26.14;40.75;100120.81;4472410;32;33931;-79
2023/10/12 10:57:24;;;;;;;1.40;1.30;;;;;;;26.35;40.34;100122.28;4452217;32;34294;-79
2023/10/12 10:59:53;;;;;;;3.08;1.75;;;;;;;26.40;39.91;100119.97;4476966;32;33617;-79
2023/10/12 11:02:21;;;;;;;1.35;1.25;;;;;;;26.47;40.03;100110.22;4474967;32;33460;-79
2023/10/12 11:04:55;;;;;;;1.75;1.48;;;;;;;26.76;39.55;100109.81;4474745;32;34158;-79
2023/10/12 11:07:24;;;;;;;2.67;2.00;;;;;;;26.78;39.56;100105.94;4462017;32;33941;-79
2023/10/12 11:10:06;;;;;;;1.52;1.10;;;;;;;26.07;40.55;100106.25;4463035;32;33715;-80
2023/10/12 11:12:36;;;;;;;2.12;1.95;;;;;;;26.45;40.12;100101.41;4472202;32;32463;-79
2023/10/12 11:15:09;;;;;;;1.83;1.23;;;;;;;26.58;41.44;100106.34;4465512;32;33968;-80
2023/10/12 11:17:49;;;;;;;17.73;0.90;;;;;;;26.55;41.00;100105.69;4453531;32;33140;-80
2023/10/12 11:23:14;;;;;;;1.35;0.93;;;;;;;26.81;39.52;100086.62;4474396;32;32549;-79
2023/10/12 11:25:43;;;;;;;10.95;2.42;;;;;;;26.98;39.79;100097.53;4475222;32;33978;-79
2023/10/12 11:28:26;;;;;;;1.92;1.67;;;;;;;26.94;39.86;100085.34;4475695;32;36530;-79
2023/10/12 11:31:20;;;;;;;6.03;3.17;;;;;;;27.10;40.02;100084.53;4474042;32;33811;-79
2023/10/12 11:33:48;;;;;;;6.65;2.17;;;;;;;26.83;41.31;100077.53;4476179;31;33341;-80
2023/10/12 11:36:22;;;;;;;;;;;;;;;27.03;39.07;100073.50;4475288;32;33940;-79
2023/10/12 11:39:00;;;;;;;5.82;1.87;;;;;;;27.33;38.97;100072.03;4449545;32;34639;-79
2023/10/12 11:41:28;;;;;;;5.05;2.28;;;;;;;27.60;38.94;100068.16;4464618;32;32561;-79
2023/10/12 11:44:05;;;;;;;2.67;2.05;;;;;;;27.87;38.57;100077.81;4462134;32;32372;-80
2023/10/12 11:46:45;;;;;;;0.90;0.90;;;;;;;27.94;38.42;100062.53;4472278;32;103207;-80
2023/10/12 11:49:13;;;;;;;1.40;1.30;;;;;;;27.89;38.64;100069.50;4458900;32;33513;-80
2023/10/12 11:51:50;;;;;;;11.48;2.03;;;;;;;27.72;38.99;100069.50;4474919;32;32844;-80
2023/10/12 11:54:22;;;;;;;1.92;1.70;;;;;;;28.31;37.73;100059.22;4462927;32;33413;-80
2023/10/12 11:56:51;;;;;;;2.87;1.70;;;;;;;27.97;38.98;100058.63;4450550;32;33830;-80
2023/10/12 11:59:25;;;;;;;2.80;2.60;;;;;;;28.32;38.08;100052.75;4462959;32;34691;-80
2023/10/12 12:01:57;;;;;;;11.07;1.33;;;;;;;28.38;37.07;100055.81;4472076;32;32686;-80
2023/10/12 12:04:32;;;;;;;2.28;1.40;;;;;;;28.30;38.29;100052.09;4474064;32;32614;-80
2023/10/12 12:07:01;;;;;;;3.12;0.90;;;;;;;28.23;37.66;100042.94;4474306;32;33071;-80
2023/10/12 12:09:30;;;;;;;3.70;2.45;;;;;;;28.33;38.14;100043.56;4460751;32;33861;-80
2023/10/12 12:11:58;;;;;;;0.95;0.95;;;;;;;28.67;37.85;100038.88;4463288;32;33977;-80
2023/10/12 12:14:25;;;;;;;2.47;1.77;;;;;;;28.97;36.49;100043.47;4473272;32;34381;-80
2023/10/12 12:16:53;;;;;;;2.17;1.42;;;;;;;28.92;36.55;100045.88;4457252;32;32109;-80
2023/10/12 12:19:24;;;;;;;1.12;0.93;;;;;;;28.79;36.96;100045.59;4472827;32;32998;-80
2023/10/12 12:21:53;;;;;;;2.58;1.02;;;;;;;29.02;37.10;100034.78;4460851;32;31813;-80
2023/10/12 12:24:22;;;;;;;1.48;1.37;;;;;;;28.62;36.85;100033.97;4473581;32;34547;-80
2023/10/12 12:26:52;;;;;;;1.08;1.02;;;;;;;28.90;36.43;100031.59;4461279;32;33467;-80
2023/10/12 12:29:27;;;;;;;1.25;1.15;;;;;;;28.91;36.92;100030.56;4472358;32;33460;-80
2023/10/12 12:32:18;;;;;;;1.37;1.02;;;;;;;29.16;36.56;100014.13;4473819;32;34126;-80
2023/10/12 12:34:47;;;;;;;1.02;0.90;;;;;;;29.18;36.17;100023.78;4471999;32;33750;-80
2023/10/12 12:37:17;;;;;;;0.43;0.43;;;;;;;29.18;36.06;100021.06;4471418;32;33591;-80
2023/10/12 12:39:54;;;;;;;6.53;1.37;;;;;;;29.31;36.62;100007.69;4447714;32;33175;-80
2023/10/12 12:42:22;;;;;;;1.35;1.15;;;;;;;29.29;36.03;100004.34;4473549;32;33460;-80
2023/10/12 12:44:50;;;;;;;2.60;1.95;;;;;;;29.24;36.00;100006.72;4461578;32;33181;-80
2023/10/12 12:47:23;;;;;;;1.15;1.05;;;;;;;29.18;35.99;99995.75;4471930;32;34677;-80
2023/10/12 12:49:51;;;;;;;4.00;1.45;;;;;;;29.26;35.96;99988.38;4472577;32;32862;-80
2023/10/12 12:52:19;;;;;;;4.05;1.33;;;;;;;29.41;35.93;99982.97;4471510;32;33670;-80
2023/10/12 12:54:47;;;;;;;1.40;1.25;;;;;;;29.64;36.04;99973.94;4475174;32;32814;-80
2023/10/12 12:57:15;;;;;;;3.42;1.17;;;;;;;29.61;34.91;99979.75;4447844;32;35212;-80
2023/10/12 12:59:42;;;;;;;1.00;1.00;;;;;;;29.50;35.20;99978.28;4462046;32;32811;-80
2023/10/12 13:02:10;;;;;;;1.85;1.75;;;;;;;29.26;35.93;99974.78;4460102;32;34133;-80
2023/10/12 13:04:38;;;;;;;0.47;0.47;;;;;;;29.43;35.95;99966.44;4461309;32;32897;-80
2023/10/12 13:07:08;;;;;;;1.75;1.62;;;;;;;29.20;35.88;99972.78;4459934;32;33317;-80
2023/10/12 13:09:36;;;;;;;2.00;1.80;;;;;;;29.31;36.24;99969.63;4473274;32;34865;-80
2023/10/12 13:12:05;;;;;;;11.95;1.80;;;;;;;29.91;34.85;99965.13;4473198;32;34156;-80
2023/10/12 13:14:33;;;;;;;7.72;1.08;;;;;;;30.03;34.80;99968.22;4472002;32;33377;-80
2023/10/12 13:17:01;;;;;;;1.27;0.95;;;;;;;29.48;35.51;99956.72;4474086;32;34297;-80
2023/10/12 13:19:31;;;;;;;1.75;1.58;;;;;;;29.42;35.41;99960.16;4471430;32;33681;-80
2023/10/12 13:21:59;;;;;;;1.65;1.48;;;;;;;29.63;36.00;99956.78;4443981;32;33984;-80
2023/10/12 13:24:35;;;;;;;0.95;0.88;;;;;;;29.25;36.67;99959.50;4468647;32;31576;-80
2023/10/12 13:27:08;;;;;;;1.77;1.58;;;;;;;29.37;36.09;99964.47;4459229;32;32692;-80
2023/10/12 13:29:36;;;;;;;2.08;1.40;;;;;;;29.62;35.74;99963.22;4472081;32;33653;-80
2023/10/12 13:32:09;;;;;;;0.88;0.82;;;;;;;29.44;35.15;99968.16;4454367;32;33883;-80
2023/10/12 13:34:39;;;;;;;12.00;1.20;;;;;;;29.58;34.58;99964.66;4448137;32;31994;-80
2023/10/12 13:37:07;;;;;;;1.52;1.42;;;;;;;29.31;35.35;99956.03;4471257;32;34551;-80
2023/10/12 13:39:35;;;;;;;1.40;1.27;;;;;;;29.25;35.95;99964.09;4469950;32;34826;-80
2023/10/12 13:42:11;;;;;;;5.20;1.40;;;;;;;29.17;36.28;99962.28;4461531;32;33819;-80
2023/10/12 13:44:41;;;;;;;1.77;1.67;;;;;;;28.98;36.53;99957.34;4469257;32;34029;-80
2023/10/12 13:47:11;;;;;;;2.25;1.25;;;;;;;28.87;36.34;99960.47;4469372;32;33542;-80
2023/10/12 13:49:40;;;;;;;4.18;1.70;;;;;;;28.71;36.09;99948.66;4458323;32;33250;-80
2023/10/12 13:52:09;;;;;;;1.75;1.40;;;;;;;28.58;36.46;99942.97;4472640;32;32621;-80
2023/10/12 13:54:45;;;;;;;1.33;1.23;;;;;;;28.44;37.46;99941.03;4472235;32;31734;-80
2023/10/12 13:57:14;;;;;;;1.23;1.12;;;;;;;28.38;37.56;99944.47;4437565;32;35310;-80
2023/10/12 13:59:45;;;;;;;1.55;1.45;;;;;;;28.16;38.07;99941.50;4447243;32;33127;-80
2023/10/12 14:02:14;;;;;;;3.17;2.37;;;;;;;28.21;37.64;99944.53;4458977;32;34467;-80
2023/10/12 14:04:42;;;;;;;9.27;1.37;;;;;;;27.99;37.65;99939.87;4458904;32;34035;-80
2023/10/12 14:07:12;;;;;;;0.50;0.50;;;;;;;27.78;38.45;99938.59;4471226;32;32827;-80